createdAt,value
2017-06-27T00:00:31.028Z,0
2017-06-27T00:01:31.008Z,0
2017-06-27T00:02:30.988Z,0
2017-06-27T00:03:30.958Z,0
2017-06-27T00:04:30.942Z,0
2017-06-27T00:05:30.928Z,0
2017-06-27T00:06:30.904Z,0
2017-06-27T00:07:30.882Z,0
2017-06-27T00:08:30.856Z,0
2017-06-27T00:09:30.885Z,0
2017-06-27T00:10:30.810Z,0
2017-06-27T00:11:30.801Z,0
2017-06-27T00:12:30.776Z,0
2017-06-27T00:13:30.781Z,0
2017-06-27T00:14:30.727Z,0
2017-06-27T00:15:30.710Z,0
2017-06-27T00:16:30.694Z,0
2017-06-27T00:17:30.674Z,0
2017-06-27T00:18:30.694Z,0
2017-06-27T00:19:30.630Z,0
2017-06-27T00:20:30.305Z,0
2017-06-27T00:21:30.589Z,0
2017-06-27T00:22:30.562Z,0
2017-06-27T00:23:30.542Z,0
2017-06-27T00:24:30.516Z,0
2017-06-27T00:25:30.499Z,0
2017-06-27T00:26:30.487Z,0
2017-06-27T00:27:30.164Z,0
2017-06-27T00:28:30.436Z,0
2017-06-27T00:29:30.119Z,0
2017-06-27T00:30:30.391Z,0
2017-06-27T00:31:30.427Z,0
2017-06-27T00:32:30.354Z,0
2017-06-27T00:33:30.324Z,0
2017-06-27T00:34:30.298Z,0
2017-06-27T00:35:30.321Z,0
2017-06-27T00:36:30.270Z,0
2017-06-27T00:37:30.246Z,0
2017-06-27T00:38:29.617Z,0
2017-06-27T00:39:30.202Z,0
2017-06-27T00:40:30.179Z,0
2017-06-27T00:41:30.158Z,0
2017-06-27T00:42:30.140Z,0
2017-06-27T00:43:30.117Z,0
2017-06-27T00:44:29.784Z,0
2017-06-27T00:45:30.074Z,0
2017-06-27T00:46:30.051Z,0
2017-06-27T00:47:29.727Z,0
2017-06-27T00:48:30.049Z,0
2017-06-27T00:49:29.991Z,0
2017-06-27T00:50:29.970Z,0
2017-06-27T00:51:29.941Z,0
2017-06-27T00:52:29.916Z,0
2017-06-27T00:53:29.900Z,0
2017-06-27T00:54:29.933Z,0
2017-06-27T00:55:29.862Z,0
2017-06-27T00:56:29.591Z,0
2017-06-27T00:57:29.823Z,0
2017-06-27T00:58:29.796Z,0
2017-06-27T00:59:29.767Z,0
2017-06-27T01:00:29.462Z,0
2017-06-27T01:01:29.731Z,0
2017-06-27T01:02:29.717Z,0
2017-06-27T01:03:29.705Z,0
2017-06-27T01:04:29.675Z,0
2017-06-27T01:05:29.647Z,0
2017-06-27T01:06:29.639Z,0
2017-06-27T01:07:29.603Z,0
2017-06-27T01:08:29.583Z,0
2017-06-27T01:09:29.563Z,0
2017-06-27T01:10:29.548Z,0
2017-06-27T01:11:29.526Z,0
2017-06-27T01:12:29.496Z,0
2017-06-27T01:13:29.476Z,0
2017-06-27T01:14:29.453Z,0
2017-06-27T01:15:29.432Z,0
2017-06-27T01:16:29.115Z,0
2017-06-27T01:17:29.392Z,0
2017-06-27T01:18:29.418Z,0
2017-06-27T01:19:29.353Z,0
2017-06-27T01:20:29.321Z,0
2017-06-27T01:21:29.314Z,0
2017-06-27T01:22:28.985Z,0
2017-06-27T01:23:28.959Z,0
2017-06-27T01:24:29.245Z,0
2017-06-27T01:25:29.226Z,0
2017-06-27T01:26:29.198Z,0
2017-06-27T01:27:29.171Z,0
2017-06-27T01:28:29.151Z,0
2017-06-27T01:29:29.131Z,0
2017-06-27T01:30:29.116Z,0
2017-06-27T01:31:28.794Z,0
2017-06-27T01:32:29.067Z,0
2017-06-27T01:33:29.104Z,0
2017-06-27T01:34:29.020Z,0
2017-06-27T01:35:28.999Z,0
2017-06-27T01:36:28.984Z,0
2017-06-27T01:37:28.719Z,0
2017-06-27T01:38:28.679Z,0
2017-06-27T01:39:28.913Z,0
2017-06-27T01:40:28.893Z,0
2017-06-27T01:41:28.871Z,0
2017-06-27T01:42:28.869Z,0
2017-06-27T01:43:28.822Z,0
2017-06-27T01:44:28.818Z,0
2017-06-27T01:45:28.541Z,0
2017-06-27T01:46:28.762Z,0
2017-06-27T01:47:28.745Z,0
2017-06-27T01:48:28.731Z,0
2017-06-27T01:49:28.702Z,0
2017-06-27T01:50:28.925Z,0
2017-06-27T01:51:28.668Z,0
2017-06-27T01:52:28.651Z,0
2017-06-27T01:53:28.614Z,0
2017-06-27T01:54:28.601Z,0
2017-06-27T01:55:28.570Z,0
2017-06-27T01:56:28.556Z,0
2017-06-27T01:57:28.527Z,0
2017-06-27T01:58:28.507Z,0
2017-06-27T01:59:28.513Z,0
2017-06-27T02:00:28.464Z,0
2017-06-27T02:01:28.442Z,0
2017-06-27T02:02:28.422Z,0
2017-06-27T02:03:28.407Z,0
2017-06-27T02:04:28.380Z,0
2017-06-27T02:05:28.357Z,0
2017-06-27T02:06:28.340Z,0
2017-06-27T02:07:28.320Z,0
2017-06-27T02:08:28.300Z,0
2017-06-27T02:09:28.268Z,0
2017-06-27T02:10:28.247Z,0
2017-06-27T02:11:28.248Z,0
2017-06-27T02:12:28.206Z,0
2017-06-27T02:13:28.235Z,0
2017-06-27T02:14:28.168Z,0
2017-06-27T02:15:28.163Z,0
2017-06-27T02:16:28.113Z,0
2017-06-27T02:17:28.098Z,0
2017-06-27T02:18:27.776Z,0
2017-06-27T02:19:28.062Z,0
2017-06-27T02:20:28.035Z,4
2017-06-27T02:21:28.020Z,4
2017-06-27T02:22:27.995Z,4
2017-06-27T02:23:27.968Z,0
2017-06-27T02:24:27.950Z,0
2017-06-27T02:25:27.929Z,0
2017-06-27T02:26:27.900Z,4
2017-06-27T02:27:27.580Z,4
2017-06-27T02:28:27.871Z,0
2017-06-27T02:29:27.845Z,4
2017-06-27T02:30:27.824Z,4
2017-06-27T02:31:27.500Z,4
2017-06-27T02:32:27.826Z,8
2017-06-27T02:33:27.755Z,4
2017-06-27T02:34:27.741Z,4
2017-06-27T02:35:27.714Z,4
2017-06-27T02:36:27.694Z,8
2017-06-27T02:37:27.668Z,12
2017-06-27T02:38:27.651Z,8
2017-06-27T02:39:27.621Z,12
2017-06-27T02:40:27.294Z,16
2017-06-27T02:41:27.281Z,16
2017-06-27T02:42:27.562Z,16
2017-06-27T02:43:27.541Z,16
2017-06-27T02:44:27.512Z,20
2017-06-27T02:45:27.493Z,24
2017-06-27T02:46:27.517Z,28
2017-06-27T02:47:27.454Z,28
2017-06-27T02:48:27.126Z,32
2017-06-27T02:49:27.107Z,36
2017-06-27T02:50:27.387Z,40
2017-06-27T02:51:27.371Z,44
2017-06-27T02:52:27.043Z,48
2017-06-27T02:53:27.329Z,56
2017-06-27T02:54:27.295Z,60
2017-06-27T02:55:27.291Z,68
2017-06-27T02:56:27.253Z,76
2017-06-27T02:57:27.226Z,84
2017-06-27T02:58:27.205Z,92
2017-06-27T02:59:27.186Z,100
2017-06-27T03:00:26.872Z,112
2017-06-27T03:01:27.147Z,124
2017-06-27T03:02:27.130Z,140
2017-06-27T03:03:27.108Z,152
2017-06-27T03:04:27.085Z,172
2017-06-27T03:05:27.058Z,188
2017-06-27T03:06:27.037Z,208
2017-06-27T03:07:27.011Z,224
2017-06-27T03:08:26.991Z,244
2017-06-27T03:09:27.027Z,260
2017-06-27T03:10:26.954Z,284
2017-06-27T03:11:26.927Z,304
2017-06-27T03:12:26.907Z,328
2017-06-27T03:13:26.884Z,352
2017-06-27T03:14:26.871Z,376
2017-06-27T03:15:26.841Z,400
2017-06-27T03:16:26.818Z,428
2017-06-27T03:17:26.797Z,456
2017-06-27T03:18:26.821Z,488
2017-06-27T03:19:27.053Z,524
2017-06-27T03:20:26.438Z,556
2017-06-27T03:21:26.756Z,596
2017-06-27T03:22:26.695Z,632
2017-06-27T03:23:26.674Z,668
2017-06-27T03:24:26.342Z,696
2017-06-27T03:25:26.622Z,728
2017-06-27T03:26:26.612Z,756
2017-06-27T03:27:26.577Z,788
2017-06-27T03:28:26.558Z,816
2017-06-27T03:29:26.536Z,856
2017-06-27T03:30:26.514Z,900
2017-06-27T03:31:26.498Z,948
2017-06-27T03:32:26.471Z,992
2017-06-27T03:33:26.454Z,1044
2017-06-27T03:34:26.123Z,1108
2017-06-27T03:35:26.457Z,1172
2017-06-27T03:36:26.386Z,1228
2017-06-27T03:37:26.364Z,1292
2017-06-27T03:38:26.040Z,1360
2017-06-27T03:39:26.320Z,1428
2017-06-27T03:40:26.297Z,1496
2017-06-27T03:41:26.274Z,1568
2017-06-27T03:42:26.254Z,1672
2017-06-27T03:43:26.235Z,1832
2017-06-27T03:44:26.212Z,1956
2017-06-27T03:45:26.189Z,1992
2017-06-27T03:46:26.174Z,2040
2017-06-27T03:47:26.159Z,2136
2017-06-27T03:48:26.128Z,2348
2017-06-27T03:49:25.810Z,2776
2017-06-27T03:50:26.135Z,3208
2017-06-27T03:51:26.065Z,3480
2017-06-27T03:52:26.038Z,3680
2017-06-27T03:53:26.017Z,3904
2017-06-27T03:54:26.002Z,4120
2017-06-27T03:55:25.974Z,4268
2017-06-27T03:56:25.650Z,4336
2017-06-27T03:57:25.928Z,4420
2017-06-27T03:58:25.907Z,4520
2017-06-27T03:59:25.585Z,4424
2017-06-27T04:00:25.927Z,4192
2017-06-27T04:01:25.863Z,3440
2017-06-27T04:02:25.824Z,2760
2017-06-27T04:03:25.803Z,2628
2017-06-27T04:04:25.781Z,2532
2017-06-27T04:05:25.459Z,2524
2017-06-27T04:06:25.805Z,2556
2017-06-27T04:07:25.766Z,2572
2017-06-27T04:08:25.397Z,2588
2017-06-27T04:09:25.675Z,2628
2017-06-27T04:10:25.656Z,2688
2017-06-27T04:11:25.629Z,2732
2017-06-27T04:12:25.610Z,2768
2017-06-27T04:13:25.288Z,2800
2017-06-27T04:14:25.268Z,3068
2017-06-27T04:15:25.551Z,3520
2017-06-27T04:16:25.526Z,3964
2017-06-27T04:17:25.504Z,4464
2017-06-27T04:18:25.485Z,4452
2017-06-27T04:19:25.466Z,4080
2017-06-27T04:20:25.441Z,3248
2017-06-27T04:21:25.113Z,3252
2017-06-27T04:22:25.412Z,3232
2017-06-27T04:23:25.383Z,3288
2017-06-27T04:24:25.349Z,3332
2017-06-27T04:25:25.340Z,3396
2017-06-27T04:26:25.313Z,3444
2017-06-27T04:27:25.296Z,3500
2017-06-27T04:28:25.272Z,3596
2017-06-27T04:29:25.251Z,3716
2017-06-27T04:30:25.233Z,3856
2017-06-27T04:31:25.211Z,3972
2017-06-27T04:32:25.184Z,4124
2017-06-27T04:33:25.174Z,4304
2017-06-27T04:34:25.147Z,4452
2017-06-27T04:35:25.129Z,4632
2017-06-27T04:36:25.103Z,5100
2017-06-27T04:37:24.782Z,5116
2017-06-27T04:38:24.750Z,4772
2017-06-27T04:39:25.035Z,4920
2017-06-27T04:40:25.022Z,4880
2017-06-27T04:41:24.696Z,4900
2017-06-27T04:42:24.970Z,5272
2017-06-27T04:43:24.956Z,5140
2017-06-27T04:44:24.934Z,6140
2017-06-27T04:45:24.913Z,5736
2017-06-27T04:46:24.889Z,5312
2017-06-27T04:47:24.870Z,5300
2017-06-27T04:48:24.899Z,5296
2017-06-27T04:49:24.823Z,5384
2017-06-27T04:50:24.806Z,5472
2017-06-27T04:51:24.183Z,5580
2017-06-27T04:52:24.458Z,5680
2017-06-27T04:53:24.738Z,5736
2017-06-27T04:54:24.723Z,5728
2017-06-27T04:55:24.699Z,5704
2017-06-27T04:56:24.681Z,5700
2017-06-27T04:57:24.657Z,5804
2017-06-27T04:58:24.689Z,5992
2017-06-27T04:59:24.613Z,6476
2017-06-27T05:00:24.599Z,6100
2017-06-27T05:01:24.573Z,7376
2017-06-27T05:02:24.552Z,7188
2017-06-27T05:03:24.532Z,7768
2017-06-27T05:04:24.507Z,8164
2017-06-27T05:05:24.488Z,7264
2017-06-27T05:06:24.466Z,6892
2017-06-27T05:07:24.446Z,7140
2017-06-27T05:08:24.423Z,7272
2017-06-27T05:09:24.414Z,7292
2017-06-27T05:10:24.070Z,7364
2017-06-27T05:11:24.414Z,7536
2017-06-27T05:12:24.343Z,8012
2017-06-27T05:13:24.316Z,8120
2017-06-27T05:14:24.292Z,8408
2017-06-27T05:15:24.267Z,9620
2017-06-27T05:16:24.263Z,10420
2017-06-27T05:17:24.287Z,10728
2017-06-27T05:18:23.908Z,9176
2017-06-27T05:19:24.275Z,10216
2017-06-27T05:20:23.916Z,11380
2017-06-27T05:21:24.155Z,11420
2017-06-27T05:22:24.129Z,13372
2017-06-27T05:23:24.110Z,15680
2017-06-27T05:24:24.095Z,14328
2017-06-27T05:25:24.071Z,10380
2017-06-27T05:26:24.046Z,16960
2017-06-27T05:27:23.723Z,11136
2017-06-27T05:28:24.016Z,12960
2017-06-27T05:29:24.001Z,15104
2017-06-27T05:30:23.972Z,17536
2017-06-27T05:31:23.970Z,14684
2017-06-27T05:32:23.939Z,13696
2017-06-27T05:33:23.906Z,16160
2017-06-27T05:34:23.890Z,14228
2017-06-27T05:35:23.869Z,12600
2017-06-27T05:36:23.851Z,11328
2017-06-27T05:37:23.529Z,13588
2017-06-27T05:38:23.812Z,14104
2017-06-27T05:39:23.790Z,12712
2017-06-27T05:40:23.479Z,16224
2017-06-27T05:41:23.456Z,15552
2017-06-27T05:42:23.731Z,12340
2017-06-27T05:43:23.711Z,16960
2017-06-27T05:44:23.736Z,21760
2017-06-27T05:45:23.673Z,17888
2017-06-27T05:46:23.660Z,21184
2017-06-27T05:47:23.629Z,19904
2017-06-27T05:48:23.610Z,13024
2017-06-27T05:49:23.296Z,13292
2017-06-27T05:50:23.626Z,14776
2017-06-27T05:51:23.558Z,17088
2017-06-27T05:52:23.540Z,17632
2017-06-27T05:53:23.519Z,16896
2017-06-27T05:54:23.492Z,16064
2017-06-27T05:55:23.528Z,13036
2017-06-27T05:56:23.466Z,16096
2017-06-27T05:57:23.457Z,15840
2017-06-27T05:58:23.429Z,15292
2017-06-27T05:59:23.407Z,14200
2017-06-27T06:00:23.383Z,12768
2017-06-27T06:01:23.367Z,13168
2017-06-27T06:02:23.354Z,14588
2017-06-27T06:03:23.333Z,13616
2017-06-27T06:04:23.310Z,14100
2017-06-27T06:05:23.303Z,13572
2017-06-27T06:06:23.272Z,11440
2017-06-27T06:07:23.256Z,10936
2017-06-27T06:08:23.232Z,10928
2017-06-27T06:09:23.217Z,11112
2017-06-27T06:10:23.257Z,11380
2017-06-27T06:11:23.176Z,11752
2017-06-27T06:12:23.200Z,11996
2017-06-27T06:13:23.137Z,12060
2017-06-27T06:14:23.114Z,11964
2017-06-27T06:15:24.005Z,11576
2017-06-27T06:16:23.077Z,11392
2017-06-27T06:17:23.060Z,11420
2017-06-27T06:18:23.043Z,11912
2017-06-27T06:19:23.026Z,12580
2017-06-27T06:20:22.994Z,11908
2017-06-27T06:21:22.983Z,12396
2017-06-27T06:22:22.961Z,13572
2017-06-27T06:23:22.946Z,14976
2017-06-27T06:24:22.929Z,13172
2017-06-27T06:25:22.905Z,13412
2017-06-27T06:26:22.892Z,14288
2017-06-27T06:27:22.869Z,14808
2017-06-27T06:28:22.845Z,16576
2017-06-27T06:29:22.834Z,18720
2017-06-27T06:30:22.505Z,20000
2017-06-27T06:31:22.786Z,17664
2017-06-27T06:32:22.778Z,18944
2017-06-27T06:33:22.451Z,16448
2017-06-27T06:34:22.727Z,15152
2017-06-27T06:35:22.420Z,17568
2017-06-27T06:36:22.722Z,17600
2017-06-27T06:37:22.668Z,15872
2017-06-27T06:38:22.657Z,15924
2017-06-27T06:39:22.384Z,16544
2017-06-27T06:40:22.667Z,18112
2017-06-27T06:41:22.603Z,20640
2017-06-27T06:42:22.580Z,24704
2017-06-27T06:43:22.563Z,24032
2017-06-27T06:44:22.534Z,32416
2017-06-27T06:45:22.222Z,27040
2017-06-27T06:46:22.559Z,22080
2017-06-27T06:47:22.520Z,27520
2017-06-27T06:48:22.466Z,26912
2017-06-27T06:49:22.459Z,27168
2017-06-27T06:50:22.585Z,25920
2017-06-27T06:51:22.408Z,24576
2017-06-27T06:52:22.390Z,27360
2017-06-27T06:53:22.384Z,20256
2017-06-27T06:54:22.356Z,17600
2017-06-27T06:55:22.398Z,15888
2017-06-27T06:56:22.325Z,15752
2017-06-27T06:57:22.004Z,18432
2017-06-27T06:58:21.983Z,17536
2017-06-27T06:59:22.269Z,17088
2017-06-27T07:00:22.250Z,15796
2017-06-27T07:01:22.231Z,16512
2017-06-27T07:02:22.212Z,14752
2017-06-27T07:03:22.196Z,16320
2017-06-27T07:04:22.177Z,17568
2017-06-27T07:05:21.858Z,16384
2017-06-27T07:06:22.235Z,16960
2017-06-27T07:07:21.521Z,17216
2017-06-27T07:08:22.100Z,17376
2017-06-27T07:09:22.080Z,18880
2017-06-27T07:10:22.062Z,18304
2017-06-27T07:11:22.051Z,17536
2017-06-27T07:12:21.728Z,17088
2017-06-27T07:13:22.023Z,16640
2017-06-27T07:14:21.700Z,16480
2017-06-27T07:15:21.972Z,15664
2017-06-27T07:16:21.955Z,14272
2017-06-27T07:17:21.645Z,14004
2017-06-27T07:18:21.906Z,15372
2017-06-27T07:19:21.595Z,14240
2017-06-27T07:20:21.892Z,14540
2017-06-27T07:21:21.855Z,14396
2017-06-27T07:22:22.146Z,15320
2017-06-27T07:23:21.827Z,18272
2017-06-27T07:24:21.807Z,18816
2017-06-27T07:25:21.531Z,17632
2017-06-27T07:26:21.464Z,19872
2017-06-27T07:27:21.755Z,19360
2017-06-27T07:28:21.428Z,18368
2017-06-27T07:29:21.409Z,16928
2017-06-27T07:30:21.545Z,15872
2017-06-27T07:31:21.677Z,15768
2017-06-27T07:32:21.708Z,15424
2017-06-27T07:33:21.638Z,17536
2017-06-27T07:34:21.641Z,17696
2017-06-27T07:35:21.602Z,18080
2017-06-27T07:36:21.576Z,18912
2017-06-27T07:37:21.255Z,20448
2017-06-27T07:38:21.596Z,23136
2017-06-27T07:39:21.547Z,29536
2017-06-27T07:40:21.201Z,28736
2017-06-27T07:41:21.484Z,30208
2017-06-27T07:42:21.170Z,30144
2017-06-27T07:43:21.146Z,25216
2017-06-27T07:44:21.130Z,23680
2017-06-27T07:45:21.410Z,23680
2017-06-27T07:46:21.398Z,27424
2017-06-27T07:47:21.391Z,22272
2017-06-27T07:48:21.403Z,23424
2017-06-27T07:49:21.034Z,19264
2017-06-27T07:50:21.365Z,17696
2017-06-27T07:51:21.298Z,18624
2017-06-27T07:52:20.985Z,16544
2017-06-27T07:53:21.269Z,18528
2017-06-27T07:54:21.255Z,15472
2017-06-27T07:55:21.280Z,14856
2017-06-27T07:56:21.218Z,14508
2017-06-27T07:57:21.198Z,14348
2017-06-27T07:58:21.230Z,14852
2017-06-27T07:59:21.155Z,14036
2017-06-27T08:00:21.188Z,13932
2017-06-27T08:01:21.120Z,13092
2017-06-27T08:02:21.101Z,13484
2017-06-27T08:03:21.088Z,14112
2017-06-27T08:04:21.074Z,14716
2017-06-27T08:05:21.055Z,15400
2017-06-27T08:06:21.032Z,16448
2017-06-27T08:07:21.010Z,16800
2017-06-27T08:08:20.998Z,17888
2017-06-27T08:09:20.975Z,18816
2017-06-27T08:10:20.951Z,18528
2017-06-27T08:11:20.930Z,19776
2017-06-27T08:12:20.919Z,19200
2017-06-27T08:13:20.902Z,19296
2017-06-27T08:14:20.878Z,19968
2017-06-27T08:15:20.856Z,21248
2017-06-27T08:16:20.895Z,22048
2017-06-27T08:17:20.875Z,23840
2017-06-27T08:18:20.499Z,25536
2017-06-27T08:19:20.794Z,24032
2017-06-27T08:20:20.834Z,22144
2017-06-27T08:21:20.758Z,19776
2017-06-27T08:22:20.987Z,18912
2017-06-27T08:23:20.722Z,18496
2017-06-27T08:24:20.702Z,18656
2017-06-27T08:25:20.685Z,19680
2017-06-27T08:26:20.662Z,19936
2017-06-27T08:27:20.646Z,20768
2017-06-27T08:28:20.635Z,20448
2017-06-27T08:29:20.303Z,20672
2017-06-27T08:30:20.585Z,21440
2017-06-27T08:31:20.574Z,23168
2017-06-27T08:32:20.554Z,26688
2017-06-27T08:33:20.531Z,22112
2017-06-27T08:34:20.568Z,21408
2017-06-27T08:35:20.502Z,21984
2017-06-27T08:36:20.481Z,21472
2017-06-27T08:37:20.516Z,20832
2017-06-27T08:38:20.158Z,21184
2017-06-27T08:39:20.433Z,21888
2017-06-27T08:40:20.469Z,22240
2017-06-27T08:41:20.389Z,22208
2017-06-27T08:42:20.374Z,22592
2017-06-27T08:43:20.052Z,24992
2017-06-27T08:44:20.357Z,23520
2017-06-27T08:45:20.321Z,35840
2017-06-27T08:46:20.304Z,25280
2017-06-27T08:47:19.984Z,25056
2017-06-27T08:48:20.259Z,25824
2017-06-27T08:49:20.865Z,27808
2017-06-27T08:50:20.230Z,31680
2017-06-27T08:51:20.217Z,30496
2017-06-27T08:52:20.216Z,28480
2017-06-27T08:53:20.239Z,26816
2017-06-27T08:54:20.168Z,29632
2017-06-27T08:55:20.143Z,27552
2017-06-27T08:56:20.127Z,49984
2017-06-27T08:57:20.108Z,37536
2017-06-27T08:58:20.094Z,27328
2017-06-27T08:59:20.078Z,25664
2017-06-27T09:00:20.102Z,26304
2017-06-27T09:01:20.041Z,25088
2017-06-27T09:02:19.724Z,28928
2017-06-27T09:03:20.003Z,25824
2017-06-27T09:04:19.995Z,23904
2017-06-27T09:05:19.969Z,22688
2017-06-27T09:06:19.967Z,21792
2017-06-27T09:07:19.644Z,21248
2017-06-27T09:08:19.920Z,20960
2017-06-27T09:09:19.908Z,19936
2017-06-27T09:10:19.944Z,18912
2017-06-27T09:11:19.871Z,18176
2017-06-27T09:12:19.860Z,17728
2017-06-27T09:13:19.833Z,17504
2017-06-27T09:14:19.820Z,17600
2017-06-27T09:15:19.804Z,18432
2017-06-27T09:16:19.775Z,16992
2017-06-27T09:17:19.780Z,16736
2017-06-27T09:18:19.748Z,16800
2017-06-27T09:19:19.731Z,17024
2017-06-27T09:20:19.712Z,17376
2017-06-27T09:21:19.400Z,17696
2017-06-27T09:22:19.686Z,18048
2017-06-27T09:23:19.671Z,18112
2017-06-27T09:24:19.644Z,18144
2017-06-27T09:25:19.618Z,17984
2017-06-27T09:26:19.304Z,17344
2017-06-27T09:27:48.814Z,16480
2017-06-27T09:28:19.622Z,16288
2017-06-27T09:29:19.549Z,15936
2017-06-27T09:30:19.534Z,16448
2017-06-27T09:31:19.524Z,16416
2017-06-27T09:32:19.490Z,16320
2017-06-27T09:33:48.695Z,17088
2017-06-27T09:34:19.460Z,17408
2017-06-27T09:35:19.440Z,17344
2017-06-27T09:36:19.427Z,17184
2017-06-27T09:37:19.411Z,16864
2017-06-27T09:38:19.386Z,16736
2017-06-27T09:39:19.379Z,16736
2017-06-27T09:40:19.346Z,16832
2017-06-27T09:41:19.333Z,16800
2017-06-27T09:42:19.326Z,16896
2017-06-27T09:43:19.300Z,17056
2017-06-27T09:44:19.277Z,17504
2017-06-27T09:45:19.253Z,18144
2017-06-27T09:46:19.245Z,18880
2017-06-27T09:47:18.933Z,19552
2017-06-27T09:48:19.209Z,19648
2017-06-27T09:49:19.189Z,19488
2017-06-27T09:50:19.178Z,19264
2017-06-27T09:51:19.149Z,18944
2017-06-27T09:52:19.135Z,18496
2017-06-27T09:53:19.133Z,18080
2017-06-27T09:54:18.797Z,17696
2017-06-27T09:55:18.777Z,17696
2017-06-27T09:56:19.084Z,17888
2017-06-27T09:57:18.747Z,18176
2017-06-27T09:58:19.042Z,18784
2017-06-27T09:59:19.018Z,19392
2017-06-27T10:00:19.026Z,19904
2017-06-27T10:01:19.075Z,20256
2017-06-27T10:02:18.952Z,19872
2017-06-27T10:03:18.935Z,19456
2017-06-27T10:04:18.922Z,19040
2017-06-27T10:05:18.306Z,18592
2017-06-27T10:06:18.614Z,18112
2017-06-27T10:07:18.864Z,17824
2017-06-27T10:08:18.853Z,17664
2017-06-27T10:09:18.838Z,17664
2017-06-27T10:10:18.819Z,17728
2017-06-27T10:11:18.800Z,17696
2017-06-27T10:12:18.781Z,17696
2017-06-27T10:13:18.507Z,17920
2017-06-27T10:14:18.447Z,18272
2017-06-27T10:15:18.720Z,18976
2017-06-27T10:16:18.709Z,20032
2017-06-27T10:17:18.681Z,21152
2017-06-27T10:18:18.360Z,21792
2017-06-27T10:19:18.656Z,22080
2017-06-27T10:20:18.646Z,22208
2017-06-27T10:21:18.669Z,22528
2017-06-27T10:22:18.598Z,22912
2017-06-27T10:23:18.583Z,22880
2017-06-27T10:24:18.557Z,22976
2017-06-27T10:25:18.558Z,23744
2017-06-27T10:26:18.534Z,25056
2017-06-27T10:27:18.218Z,26112
2017-06-27T10:28:18.486Z,26912
2017-06-27T10:29:18.472Z,31328
2017-06-27T10:30:18.519Z,49632
2017-06-27T10:31:18.451Z,31744
2017-06-27T10:32:18.420Z,28544
2017-06-27T10:33:18.100Z,37344
2017-06-27T10:34:18.389Z,25600
2017-06-27T10:35:18.071Z,23104
2017-06-27T10:36:18.049Z,22368
2017-06-27T10:37:18.354Z,24736
2017-06-27T10:38:18.323Z,30464
2017-06-27T10:39:18.295Z,29696
2017-06-27T10:40:18.279Z,29248
2017-06-27T10:41:18.279Z,25856
2017-06-27T10:42:17.958Z,23328
2017-06-27T10:43:18.442Z,22784
2017-06-27T10:44:18.231Z,23328
2017-06-27T10:45:18.211Z,20800
2017-06-27T10:46:18.197Z,19424
2017-06-27T10:47:18.196Z,18880
2017-06-27T10:48:18.169Z,19520
2017-06-27T10:49:18.131Z,19552
2017-06-27T10:50:17.916Z,19456
2017-06-27T10:51:17.797Z,18784
2017-06-27T10:52:17.483Z,18304
2017-06-27T10:53:18.077Z,17952
2017-06-27T10:54:18.101Z,17856
2017-06-27T10:55:17.750Z,17856
2017-06-27T10:56:18.020Z,17920
2017-06-27T10:57:17.989Z,17856
2017-06-27T10:58:17.991Z,17536
2017-06-27T10:59:17.653Z,17184
2017-06-27T11:00:17.342Z,16800
2017-06-27T11:01:17.929Z,16480
2017-06-27T11:02:18.206Z,16544
2017-06-27T11:03:17.907Z,16896
2017-06-27T11:04:17.914Z,17024
2017-06-27T11:05:17.558Z,17088
2017-06-27T11:06:17.841Z,17088
2017-06-27T11:07:17.832Z,17088
2017-06-27T11:08:17.813Z,17024
2017-06-27T11:09:17.905Z,16992
2017-06-27T11:10:17.824Z,16928
2017-06-27T11:11:17.749Z,16864
2017-06-27T11:12:17.739Z,16832
2017-06-27T11:13:17.728Z,16832
2017-06-27T11:14:17.712Z,16704
2017-06-27T11:15:17.734Z,16640
2017-06-27T11:16:17.722Z,16576
2017-06-27T11:17:17.353Z,16608
2017-06-27T11:18:17.331Z,16544
2017-06-27T11:19:17.629Z,16512
2017-06-27T11:20:17.818Z,16640
2017-06-27T11:21:17.295Z,16928
2017-06-27T11:22:17.261Z,17344
2017-06-27T11:23:17.549Z,17728
2017-06-27T11:24:17.529Z,18144
2017-06-27T11:25:17.212Z,18528
2017-06-27T11:26:17.491Z,19040
2017-06-27T11:27:17.471Z,19584
2017-06-27T11:28:17.454Z,19936
2017-06-27T11:29:17.436Z,20256
2017-06-27T11:30:17.165Z,20544
2017-06-27T11:31:17.102Z,20672
2017-06-27T11:32:17.383Z,20672
2017-06-27T11:33:17.364Z,20512
2017-06-27T11:34:17.391Z,20608
2017-06-27T11:35:17.385Z,20736
2017-06-27T11:36:17.312Z,21184
2017-06-27T11:37:17.301Z,21408
2017-06-27T11:38:17.277Z,21184
2017-06-27T11:39:17.014Z,20800
2017-06-27T11:40:17.257Z,20480
2017-06-27T11:41:17.232Z,20256
2017-06-27T11:42:16.627Z,20064
2017-06-27T11:43:17.202Z,19680
2017-06-27T11:44:16.872Z,19360
2017-06-27T11:45:17.159Z,18944
2017-06-27T11:46:17.138Z,18784
2017-06-27T11:47:17.135Z,18624
2017-06-27T11:48:16.810Z,18688
2017-06-27T11:49:17.089Z,18848
2017-06-27T11:50:17.066Z,18912
2017-06-27T11:51:17.069Z,18976
2017-06-27T11:52:17.093Z,19104
2017-06-27T11:53:17.072Z,19232
2017-06-27T11:54:17.300Z,19232
2017-06-27T11:55:16.991Z,19104
2017-06-27T11:56:17.012Z,19008
2017-06-27T11:57:16.955Z,18944
2017-06-27T11:58:17.042Z,18912
2017-06-27T11:59:16.920Z,19008
2017-06-27T12:00:16.911Z,19104
2017-06-27T12:01:16.886Z,19008
2017-06-27T12:02:16.922Z,18880
2017-06-27T12:03:17.144Z,18912
2017-06-27T12:04:16.839Z,19008
2017-06-27T12:05:16.827Z,19136
2017-06-27T12:06:16.816Z,19232
2017-06-27T12:07:16.875Z,19296
2017-06-27T12:08:16.784Z,19424
2017-06-27T12:09:16.801Z,19584
2017-06-27T12:10:17.295Z,19680
2017-06-27T12:11:16.975Z,19744
2017-06-27T12:12:16.959Z,19776
2017-06-27T12:13:16.684Z,19840
2017-06-27T12:14:16.767Z,19744
2017-06-27T12:15:16.346Z,19680
2017-06-27T12:16:16.332Z,19584
2017-06-27T12:17:16.617Z,19456
2017-06-27T12:18:16.595Z,19296
2017-06-27T12:19:21.447Z,19072
2017-06-27T12:20:16.567Z,18784
2017-06-27T12:21:16.757Z,18432
2017-06-27T12:22:16.539Z,18112
2017-06-27T12:23:16.515Z,17792
2017-06-27T12:24:16.498Z,17536
2017-06-27T12:25:16.487Z,17440
2017-06-27T12:26:18.016Z,17344
2017-06-27T12:27:16.457Z,17248
2017-06-27T12:28:16.622Z,17024
2017-06-27T12:29:16.109Z,16672
2017-06-27T12:30:16.442Z,16024
2017-06-27T12:31:16.576Z,15792
2017-06-27T12:32:16.358Z,15504
2017-06-27T12:33:16.347Z,15268
2017-06-27T12:34:16.928Z,15088
2017-06-27T12:35:16.357Z,15000
2017-06-27T12:36:16.284Z,15040
2017-06-27T12:37:16.868Z,15128
2017-06-27T12:38:16.250Z,15156
2017-06-27T12:39:16.242Z,14960
2017-06-27T12:40:16.232Z,14588
2017-06-27T12:41:16.247Z,14068
2017-06-27T12:42:16.192Z,13528
2017-06-27T12:43:16.165Z,13104
2017-06-27T12:44:16.195Z,12776
2017-06-27T12:45:16.543Z,12548
2017-06-27T12:46:16.131Z,12444
2017-06-27T12:47:16.098Z,12452
2017-06-27T12:48:16.075Z,12584
2017-06-27T12:49:16.051Z,12764
2017-06-27T12:50:15.737Z,12940
2017-06-27T12:51:16.025Z,13124
2017-06-27T12:52:17.059Z,13348
2017-06-27T12:53:15.986Z,13612
2017-06-27T12:54:16.032Z,13824
2017-06-27T12:55:16.357Z,14448
2017-06-27T12:56:16.382Z,14820
2017-06-27T12:57:16.201Z,15156
2017-06-27T12:58:15.604Z,15352
2017-06-27T12:59:15.879Z,15728
2017-06-27T13:00:16.118Z,15724
2017-06-27T13:01:15.845Z,15720
2017-06-27T13:02:15.841Z,15620
2017-06-27T13:03:16.159Z,15472
2017-06-27T13:04:15.797Z,16024
2017-06-27T13:05:15.480Z,15780
2017-06-27T13:06:15.761Z,15220
2017-06-27T13:07:15.743Z,14864
2017-06-27T13:08:16.471Z,13956
2017-06-27T13:09:15.744Z,13576
2017-06-27T13:10:16.749Z,13204
2017-06-27T13:11:15.874Z,12992
2017-06-27T13:12:15.652Z,12720
2017-06-27T13:13:15.976Z,12864
2017-06-27T13:14:15.663Z,12676
2017-06-27T13:15:15.596Z,12484
2017-06-27T13:16:15.581Z,12328
2017-06-27T13:17:15.456Z,12184
2017-06-27T13:18:15.545Z,11944
2017-06-27T13:19:15.568Z,11976
2017-06-27T13:20:15.563Z,11992